< < Back
Terminal Aerodrome Forecast


Current Version              Previous Versions:   1  2  3  4  5  6  7  8  9  

Terminal Aerodrome Forecast

162
FTUS42 KTAE 271326 AAA
TAFDHN
TAF AMD
KDHN 271326Z 2713/2812 00000KT 1/2SM FG OVC002
     FM271400 17005KT P6SM SCT050=



Latest METAR

294
SAUS70 KWBC 271600 RRF
MTRDHN
METAR KDHN 271553Z 19004KT 10SM CLR 28/23 A3014 RMK AO2 SLP201
T02830228


USA.gov is the U.S. government's official web portal to all federal, state and local government web resources and services.